Time;durP1;ratioP1;P1;durP2;ratioP2;P2;SDS_P1;SDS_P2;PMS_P1;PMS_P2;Temp;Humidity;BMP_temperature;BMP_pressure;BME280_temperature;BME280_humidity;BME280_pressure;Samples;Min_cycle;Max_cycle;Signal;HPM_P1;HPM_P2
2021/06/05 00:00:31;;;;;;;8.98;4.30;;;18.20;99.90;;;;;;173965;28;1142;-75
2021/06/05 00:00:47;;;;;;;7.21;4.16;;;18.30;99.90;;;;;;172450;28;1340;-75
2021/06/05 00:00:56;;;;;;;6.71;4.40;;;18.20;99.90;;;;;;173909;28;1202;-76
2021/06/05 00:01:18;;;;;;;6.37;4.30;;;18.20;99.90;;;;;;173249;28;1433;-75
2021/06/05 00:01:35;;;;;;;6.54;4.07;;;18.20;99.90;;;;;;173886;28;1413;-75
2021/06/05 00:01:51;;;;;;;5.39;3.64;;;18.20;99.90;;;;;;174254;28;1719;-75
2021/06/05 00:01:56;;;;;;;5.25;3.92;;;18.20;99.90;;;;;;174552;28;1223;-75
2021/06/05 00:02:04;;;;;;;5.20;3.97;;;18.20;99.90;;;;;;174620;28;1347;-75
2021/06/05 00:02:19;;;;;;;5.42;3.86;;;18.20;99.90;;;;;;172245;28;2141;-75
2021/06/05 00:02:29;;;;;;;5.89;3.72;;;18.20;99.90;;;;;;172509;28;1476;-75
2021/06/05 00:02:35;;;;;;;8.13;3.90;;;18.20;99.90;;;;;;173967;28;951;-76
2021/06/05 00:02:41;;;;;;;8.67;4.00;;;18.20;99.90;;;;;;172556;28;1258;-75
2021/06/05 00:02:47;;;;;;;9.23;4.03;;;18.20;99.90;;;;;;171903;28;1156;-75
2021/06/05 00:02:54;;;;;;;8.90;4.10;;;18.20;99.90;;;;;;172522;28;1306;-76
2021/06/05 00:03:03;;;;;;;7.68;4.00;;;18.30;99.90;;;;;;173223;28;1454;-75
2021/06/05 00:03:11;;;;;;;6.43;3.90;;;18.30;99.90;;;;;;174593;28;1573;-75
2021/06/05 00:03:17;;;;;;;5.83;3.83;;;18.20;99.90;;;;;;173892;28;1078;-75
2021/06/05 00:03:24;;;;;;;5.18;3.74;;;18.20;99.90;;;;;;173684;28;1560;-76
2021/06/05 00:03:29;;;;;;;5.47;3.80;;;18.20;99.90;;;;;;173931;28;1290;-76
2021/06/05 00:03:35;;;;;;;6.22;3.90;;;18.20;99.90;;;;;;173173;28;1315;-76
2021/06/05 00:03:41;;;;;;;6.17;4.00;;;18.20;99.90;;;;;;173990;28;898;-75
2021/06/05 00:03:49;;;;;;;6.85;3.90;;;18.20;99.90;;;;;;173919;28;1431;-75
2021/06/05 00:03:56;;;;;;;7.17;3.98;;;18.20;99.90;;;;;;172561;28;937;-75
2021/06/05 00:04:04;;;;;;;7.03;4.07;;;18.20;99.90;;;;;;172667;28;859;-76
2021/06/05 00:04:11;;;;;;;7.33;4.17;;;18.20;99.90;;;;;;173214;28;1587;-76
2021/06/05 00:04:19;;;;;;;7.58;4.18;;;18.20;99.90;;;;;;173221;28;1508;-74
2021/06/05 00:04:25;;;;;;;7.60;4.05;;;18.20;99.90;;;;;;172579;28;949;-75
2021/06/05 00:04:31;;;;;;;7.40;4.00;;;18.20;99.90;;;;;;173446;28;1259;-76
2021/06/05 00:04:36;;;;;;;7.47;3.92;;;18.20;99.90;;;;;;173281;28;917;-76
2021/06/05 00:04:42;;;;;;;7.47;3.93;;;18.20;99.90;;;;;;173368;28;921;-75
2021/06/05 00:04:54;;;;;;;7.23;4.00;;;18.20;99.90;;;;;;174025;28;1314;-74
2021/06/05 00:05:00;;;;;;;6.90;3.97;;;18.20;99.90;;;;;;173220;28;1651;-75
2021/06/05 00:05:08;;;;;;;7.30;4.00;;;18.20;99.90;;;;;;171962;28;914;-75
2021/06/05 00:05:14;;;;;;;7.28;4.05;;;18.20;99.90;;;;;;171835;28;924;-75
2021/06/05 00:05:23;;;;;;;7.83;4.03;;;18.20;99.90;;;;;;172553;28;1251;-74
2021/06/05 00:05:40;;;;;;;8.73;4.10;;;18.20;99.90;;;;;;173214;28;1424;-75
2021/06/05 00:05:57;;;;;;;8.43;4.24;;;18.10;99.90;;;;;;173311;28;1540;-76
2021/06/05 00:06:03;;;;;;;7.40;4.38;;;18.20;99.90;;;;;;173183;28;1353;-75
2021/06/05 00:06:10;;;;;;;6.17;4.27;;;18.20;99.90;;;;;;172652;28;914;-75
2021/06/05 00:06:17;;;;;;;6.32;4.22;;;18.10;99.90;;;;;;173285;28;863;-76
2021/06/05 00:06:25;;;;;;;6.00;4.06;;;18.10;99.90;;;;;;172680;28;902;-75
2021/06/05 00:06:31;;;;;;;6.07;3.97;;;18.20;99.90;;;;;;172046;28;1308;-75
2021/06/05 00:06:37;;;;;;;6.40;3.90;;;18.20;99.90;;;;;;173224;28;1395;-75
2021/06/05 00:06:42;;;;;;;7.27;3.93;;;18.10;99.90;;;;;;173313;28;776;-76
2021/06/05 00:06:50;;;;;;;7.20;4.00;;;18.10;99.90;;;;;;173364;28;891;-75
2021/06/05 00:06:55;;;;;;;7.20;4.08;;;18.20;99.90;;;;;;174660;28;1086;-74
2021/06/05 00:07:01;;;;;;;7.03;3.92;;;18.20;99.90;;;;;;173276;28;1239;-75
2021/06/05 00:07:07;;;;;;;6.55;3.97;;;18.20;99.90;;;;;;173318;28;915;-75
2021/06/05 00:07:13;;;;;;;6.07;4.10;;;18.10;99.90;;;;;;173967;28;883;-75
2021/06/05 00:07:19;;;;;;;7.22;4.15;;;18.10;99.90;;;;;;172529;28;1247;-74
2021/06/05 00:07:27;;;;;;;7.00;4.10;;;18.10;99.90;;;;;;173933;28;1349;-76
2021/06/05 00:07:33;;;;;;;8.57;4.27;;;18.20;99.90;;;;;;174527;28;909;-75
2021/06/05 00:07:38;;;;;;;9.20;4.38;;;18.10;99.90;;;;;;173887;28;1311;-76
2021/06/05 00:07:44;;;;;;;8.57;4.30;;;18.20;99.90;;;;;;173989;28;1302;-75
2021/06/05 00:07:51;;;;;;;8.23;4.30;;;18.10;99.90;;;;;;175412;28;1043;-75
2021/06/05 00:07:57;;;;;;;8.60;4.40;;;18.10;99.90;;;;;;174605;28;1286;-75
2021/06/05 00:08:05;;;;;;;6.88;4.35;;;18.10;99.90;;;;;;173288;28;831;-76
2021/06/05 00:08:13;;;;;;;7.70;4.27;;;18.10;99.90;;;;;;173341;28;871;-76
2021/06/05 00:08:21;;;;;;;8.53;4.18;;;18.10;99.90;;;;;;173986;28;934;-75
2021/06/05 00:08:30;;;;;;;8.33;4.10;;;18.10;99.90;;;;;;173372;28;950;-75
2021/06/05 00:08:36;;;;;;;8.65;4.11;;;18.10;99.90;;;;;;172476;28;1386;-75
2021/06/05 00:08:42;;;;;;;8.33;4.20;;;18.20;99.90;;;;;;173237;28;1204;-75
2021/06/05 00:08:48;;;;;;;7.20;4.20;;;18.10;99.90;;;;;;174050;28;823;-75
2021/06/05 00:08:54;;;;;;;7.15;4.22;;;18.10;99.90;;;;;;173305;28;851;-76
2021/06/05 00:09:00;;;;;;;7.60;4.30;;;18.10;99.90;;;;;;173312;28;1013;-75
2021/06/05 00:09:13;;;;;;;7.78;4.20;;;18.10;99.90;;;;;;173310;28;915;-75
2021/06/05 00:09:22;;;;;;;7.93;4.21;;;18.10;99.90;;;;;;173896;28;1353;-75
2021/06/05 00:09:28;;;;;;;7.27;4.10;;;18.10;99.90;;;;;;172603;28;1381;-75
2021/06/05 00:09:34;;;;;;;7.47;4.10;;;18.10;99.90;;;;;;173598;28;1204;-76
2021/06/05 00:09:41;;;;;;;7.10;4.20;;;18.10;99.90;;;;;;173923;28;1433;-75
2021/06/05 00:09:46;;;;;;;7.67;4.33;;;18.10;99.90;;;;;;173887;28;1393;-75
2021/06/05 00:09:53;;;;;;;7.57;4.32;;;18.10;99.90;;;;;;173248;28;1233;-75
2021/06/05 00:09:58;;;;;;;7.07;4.53;;;18.00;99.90;;;;;;172693;28;848;-75
2021/06/05 00:10:13;;;;;;;6.85;4.57;;;18.00;99.90;;;;;;172700;28;879;-75
2021/06/05 00:10:32;;;;;;;7.54;4.47;;;18.00;99.90;;;;;;171850;28;1394;-75
2021/06/05 00:10:45;;;;;;;8.01;4.47;;;18.10;99.90;;;;;;172606;28;1248;-74
2021/06/05 00:10:56;;;;;;;7.89;4.35;;;18.00;99.90;;;;;;172565;28;2650;-75
2021/06/05 00:11:06;;;;;;;8.71;4.40;;;18.00;99.90;;;;;;171879;28;1483;-75
2021/06/05 00:11:15;;;;;;;9.50;4.57;;;18.00;99.90;;;;;;172706;28;1031;-75
2021/06/05 00:11:25;;;;;;;9.87;4.56;;;18.00;99.90;;;;;;171861;28;1054;-75
2021/06/05 00:11:32;;;;;;;9.77;4.60;;;18.00;99.90;;;;;;172595;28;1386;-75
2021/06/05 00:11:37;;;;;;;9.30;4.60;;;18.00;99.90;;;;;;172564;28;931;-75
2021/06/05 00:11:44;;;;;;;8.63;4.50;;;18.00;99.90;;;;;;172584;28;1075;-75
2021/06/05 00:11:49;;;;;;;7.67;4.50;;;18.00;99.90;;;;;;173264;28;1354;-75
2021/06/05 00:11:55;;;;;;;7.13;4.43;;;18.00;99.90;;;;;;172477;28;1376;-75
2021/06/05 00:12:01;;;;;;;6.90;4.40;;;18.00;99.90;;;;;;172376;28;1354;-75
2021/06/05 00:12:11;;;;;;;8.40;4.47;;;18.00;99.90;;;;;;172694;28;884;-75
2021/06/05 00:12:23;;;;;;;8.50;4.57;;;18.00;99.90;;;;;;173158;28;1505;-74
2021/06/05 00:12:29;;;;;;;8.71;4.66;;;18.00;99.90;;;;;;174035;28;1214;-75
2021/06/05 00:12:36;;;;;;;6.53;4.47;;;18.00;99.90;;;;;;173839;28;1298;-75
2021/06/05 00:12:42;;;;;;;5.66;4.30;;;17.90;99.90;;;;;;172199;28;1338;-75
2021/06/05 00:12:48;;;;;;;5.65;4.25;;;17.90;99.90;;;;;;172531;28;1196;-75
2021/06/05 00:12:54;;;;;;;5.05;4.18;;;17.90;99.90;;;;;;173193;28;1361;-76
2021/06/05 00:13:00;;;;;;;5.55;4.30;;;17.90;99.90;;;;;;173364;28;970;-74
2021/06/05 00:13:11;;;;;;;5.77;4.37;;;17.90;99.90;;;;;;173944;28;1262;-75
2021/06/05 00:13:26;;;;;;;6.43;4.30;;;17.90;99.90;;;;;;174542;28;1316;-75
2021/06/05 00:13:40;;;;;;;6.56;4.32;;;17.90;99.90;;;;;;173892;28;1576;-75
2021/06/05 00:13:55;;;;;;;5.74;4.26;;;17.90;99.90;;;;;;173148;28;1702;-75
2021/06/05 00:14:06;;;;;;;5.56;4.18;;;17.90;99.90;;;;;;171743;28;1420;-77
2021/06/05 00:14:13;;;;;;;7.10;4.30;;;17.90;99.90;;;;;;172000;28;1128;-75
2021/06/05 00:14:19;;;;;;;8.67;4.45;;;17.90;99.90;;;;;;172594;28;950;-75
2021/06/05 00:14:25;;;;;;;9.00;4.45;;;17.90;99.90;;;;;;172632;28;835;-76
2021/06/05 00:14:30;;;;;;;8.97;4.57;;;17.90;99.90;;;;;;172764;28;768;-75
2021/06/05 00:14:36;;;;;;;9.68;4.47;;;17.90;99.90;;;;;;173288;28;1216;-75
2021/06/05 00:14:42;;;;;;;10.02;4.40;;;17.90;99.90;;;;;;174491;28;1433;-75
2021/06/05 00:14:48;;;;;;;8.90;4.40;;;17.90;99.90;;;;;;173282;28;874;-76
2021/06/05 00:14:54;;;;;;;8.38;4.45;;;17.90;99.90;;;;;;173274;28;878;-75
2021/06/05 00:15:02;;;;;;;8.13;4.43;;;17.90;99.90;;;;;;173314;28;980;-75
2021/06/05 00:15:16;;;;;;;7.48;4.43;;;17.90;99.90;;;;;;174222;28;1464;-75
2021/06/05 00:15:32;;;;;;;8.13;4.78;;;17.90;99.90;;;;;;173095;28;1490;-75
2021/06/05 00:15:42;;;;;;;8.00;4.73;;;17.90;99.90;;;;;;173170;28;1396;-75
2021/06/05 00:15:48;;;;;;;8.90;4.33;;;17.90;99.90;;;;;;173020;28;1262;-74
2021/06/05 00:15:56;;;;;;;8.92;4.20;;;17.80;99.90;;;;;;173178;28;1530;-76
2021/06/05 00:16:06;;;;;;;8.96;4.34;;;17.80;99.90;;;;;;173336;28;922;-75
2021/06/05 00:16:18;;;;;;;8.14;4.14;;;17.90;99.90;;;;;;171934;28;1131;-75
2021/06/05 00:16:29;;;;;;;6.35;4.41;;;17.90;99.90;;;;;;172410;28;1493;-76
2021/06/05 00:16:46;;;;;;;6.16;4.40;;;17.80;99.90;;;;;;172450;28;2883;-76
2021/06/05 00:16:52;;;;;;;6.55;4.32;;;17.80;99.90;;;;;;174533;28;2176;-75
2021/06/05 00:16:58;;;;;;;6.55;4.30;;;17.80;99.90;;;;;;174704;28;941;-76
2021/06/05 00:17:03;;;;;;;6.63;4.43;;;17.80;99.90;;;;;;173904;28;1248;-75
2021/06/05 00:17:09;;;;;;;7.00;4.47;;;17.80;99.90;;;;;;173333;28;970;-75
2021/06/05 00:17:15;;;;;;;7.75;4.57;;;17.80;99.90;;;;;;171842;28;1303;-75
2021/06/05 00:17:22;;;;;;;7.80;4.63;;;17.80;99.90;;;;;;172593;28;1204;-75
2021/06/05 00:17:28;;;;;;;8.52;4.70;;;17.80;99.90;;;;;;172687;28;958;-74
2021/06/05 00:17:33;;;;;;;9.85;4.88;;;17.80;99.90;;;;;;173275;28;958;-76
2021/06/05 00:17:40;;;;;;;10.40;4.95;;;17.80;99.90;;;;;;173995;28;952;-74
2021/06/05 00:17:45;;;;;;;9.98;4.88;;;17.80;99.90;;;;;;172528;28;1434;-74
2021/06/05 00:17:51;;;;;;;9.95;4.78;;;17.80;99.90;;;;;;173903;28;1327;-75
2021/06/05 00:17:58;;;;;;;9.13;4.70;;;17.80;99.90;;;;;;174626;28;1405;-75
2021/06/05 00:18:05;;;;;;;7.60;4.50;;;17.80;99.90;;;;;;173873;28;1458;-75
2021/06/05 00:18:12;;;;;;;7.18;4.40;;;17.80;99.90;;;;;;172553;28;1371;-75
2021/06/05 00:18:19;;;;;;;6.44;4.26;;;17.80;99.90;;;;;;172626;28;970;-75
2021/06/05 00:18:25;;;;;;;7.10;4.23;;;17.80;99.90;;;;;;173186;28;1425;-75
2021/06/05 00:18:32;;;;;;;7.50;4.20;;;17.80;99.90;;;;;;173194;28;1344;-75
2021/06/05 00:18:38;;;;;;;7.26;4.12;;;17.80;99.90;;;;;;172649;28;985;-76
2021/06/05 00:18:46;;;;;;;7.28;4.32;;;17.80;99.90;;;;;;172579;28;1274;-76
2021/06/05 00:18:53;;;;;;;7.10;4.42;;;17.80;99.90;;;;;;173337;28;1335;-75
2021/06/05 00:18:58;;;;;;;8.26;4.56;;;17.80;99.90;;;;;;173214;28;1425;-75
2021/06/05 00:19:05;;;;;;;8.97;4.60;;;17.80;99.90;;;;;;173320;28;823;-76
2021/06/05 00:19:15;;;;;;;9.24;4.70;;;17.80;99.90;;;;;;173918;28;1385;-76
2021/06/05 00:19:21;;;;;;;10.80;4.67;;;17.80;99.90;;;;;;174552;28;1387;-76
2021/06/05 00:19:27;;;;;;;9.80;4.80;;;17.80;99.90;;;;;;173970;28;1375;-75
2021/06/05 00:19:32;;;;;;;8.73;4.80;;;17.80;99.90;;;;;;175164;28;1908;-75
2021/06/05 00:19:38;;;;;;;8.10;4.67;;;17.80;99.90;;;;;;174045;28;965;-76
2021/06/05 00:19:44;;;;;;;7.10;4.57;;;17.80;99.90;;;;;;173185;28;1227;-76
2021/06/05 00:19:51;;;;;;;6.43;4.57;;;17.80;99.90;;;;;;173369;28;1061;-75
2021/06/05 00:19:57;;;;;;;6.44;4.50;;;17.80;99.90;;;;;;173193;28;1315;-76
2021/06/05 00:20:09;;;;;;;6.38;4.53;;;17.80;99.90;;;;;;174004;28;902;-75
2021/06/05 00:20:15;;;;;;;7.06;4.55;;;17.90;99.90;;;;;;172487;28;1279;-76
2021/06/05 00:20:23;;;;;;;7.65;4.57;;;17.80;99.90;;;;;;173191;28;1307;-75
2021/06/05 00:20:30;;;;;;;6.92;4.35;;;17.80;99.90;;;;;;173299;28;929;-75
2021/06/05 00:20:37;;;;;;;7.10;4.40;;;17.80;99.90;;;;;;173952;28;1354;-75
2021/06/05 00:20:43;;;;;;;6.68;4.40;;;17.80;99.90;;;;;;173132;28;1550;-75
2021/06/05 00:20:50;;;;;;;6.70;4.32;;;17.80;99.90;;;;;;173365;28;894;-74
2021/06/05 00:20:57;;;;;;;6.93;4.37;;;17.80;99.90;;;;;;173357;28;1070;-75
2021/06/05 00:21:05;;;;;;;6.80;4.28;;;17.80;99.90;;;;;;173180;28;1339;-75
2021/06/05 00:21:11;;;;;;;6.61;4.19;;;17.80;99.90;;;;;;173166;28;1417;-75
2021/06/05 00:21:21;;;;;;;5.63;4.10;;;17.80;99.90;;;;;;173340;28;1017;-75
2021/06/05 00:21:27;;;;;;;5.89;4.06;;;17.80;99.90;;;;;;173359;28;1046;-75
2021/06/05 00:21:33;;;;;;;7.14;4.18;;;17.80;99.90;;;;;;173244;28;937;-75
2021/06/05 00:21:41;;;;;;;7.32;4.32;;;17.80;99.90;;;;;;173145;28;1456;-76
2021/06/05 00:21:48;;;;;;;7.50;4.40;;;17.80;99.90;;;;;;173009;28;1487;-75
2021/06/05 00:21:54;;;;;;;7.73;4.47;;;17.80;99.90;;;;;;171964;28;1237;-76
2021/06/05 00:22:00;;;;;;;6.80;4.40;;;17.80;99.90;;;;;;173174;28;1424;-76
2021/06/05 00:22:06;;;;;;;6.40;4.25;;;17.80;99.90;;;;;;172611;28;1344;-75
2021/06/05 00:22:12;;;;;;;6.22;4.30;;;17.80;99.90;;;;;;172560;28;1399;-75
2021/06/05 00:22:19;;;;;;;7.28;4.38;;;17.80;99.90;;;;;;172463;28;1315;-75
2021/06/05 00:22:25;;;;;;;7.18;4.42;;;17.80;99.90;;;;;;173234;28;1049;-76
2021/06/05 00:22:31;;;;;;;7.20;4.50;;;17.80;99.90;;;;;;172588;28;913;-75
2021/06/05 00:22:36;;;;;;;7.00;4.43;;;17.80;99.90;;;;;;173238;28;1221;-75
2021/06/05 00:22:42;;;;;;;7.30;4.32;;;17.80;99.90;;;;;;173198;28;910;-76
2021/06/05 00:22:49;;;;;;;7.53;4.38;;;17.80;99.90;;;;;;173365;28;986;-74
2021/06/05 00:22:56;;;;;;;8.00;4.47;;;17.80;99.90;;;;;;173264;28;1416;-74
2021/06/05 00:23:07;;;;;;;8.02;4.37;;;17.80;99.90;;;;;;171777;28;1417;-75
2021/06/05 00:23:18;;;;;;;8.27;4.50;;;17.80;99.90;;;;;;171904;28;1390;-75
2021/06/05 00:23:25;;;;;;;8.10;4.39;;;17.80;99.90;;;;;;171831;28;1346;-74
2021/06/05 00:23:31;;;;;;;8.40;4.57;;;17.80;99.90;;;;;;173240;28;1413;-74
2021/06/05 00:23:37;;;;;;;7.40;4.46;;;17.80;99.90;;;;;;173193;28;1427;-75
2021/06/05 00:23:43;;;;;;;6.93;4.43;;;17.80;99.90;;;;;;173278;28;792;-75
2021/06/05 00:23:49;;;;;;;5.78;4.40;;;17.80;99.90;;;;;;175265;28;1297;-75
2021/06/05 00:23:56;;;;;;;4.88;4.38;;;17.80;99.90;;;;;;173826;28;1464;-75
2021/06/05 00:24:03;;;;;;;4.94;4.44;;;17.80;99.90;;;;;;174473;28;1611;-75
2021/06/05 00:24:10;;;;;;;6.66;4.44;;;17.80;99.90;;;;;;173375;28;1632;-75
2021/06/05 00:24:19;;;;;;;7.17;4.40;;;17.80;99.90;;;;;;172497;28;1386;-75
2021/06/05 00:24:25;;;;;;;7.00;4.27;;;17.80;99.90;;;;;;173278;28;957;-76
2021/06/05 00:24:31;;;;;;;7.20;4.13;;;17.80;99.90;;;;;;173896;28;1523;-75
2021/06/05 00:24:39;;;;;;;6.47;4.13;;;17.80;99.90;;;;;;173336;28;902;-75
2021/06/05 00:24:44;;;;;;;6.33;4.18;;;17.80;99.90;;;;;;173913;28;972;-75
2021/06/05 00:24:50;;;;;;;6.57;4.10;;;17.80;99.90;;;;;;172460;28;1301;-75
2021/06/05 00:24:56;;;;;;;6.75;4.25;;;17.80;99.90;;;;;;173246;28;1419;-75
2021/06/05 00:25:06;;;;;;;6.73;4.13;;;17.80;99.90;;;;;;172921;28;1199;-76
2021/06/05 00:25:15;;;;;;;6.27;4.10;;;17.80;99.90;;;;;;173890;28;1303;-75
2021/06/05 00:25:22;;;;;;;6.50;4.35;;;17.80;99.90;;;;;;173249;28;957;-76
2021/06/05 00:25:30;;;;;;;6.60;4.30;;;17.80;99.90;;;;;;172540;28;1526;-75
2021/06/05 00:25:37;;;;;;;7.03;4.40;;;17.80;99.90;;;;;;173975;28;944;-75
2021/06/05 00:25:44;;;;;;;7.58;4.20;;;17.80;99.90;;;;;;173238;28;1005;-75
2021/06/05 00:25:52;;;;;;;6.87;3.90;;;17.80;99.90;;;;;;174047;28;1040;-75
2021/06/05 00:25:58;;;;;;;6.53;3.90;;;17.80;99.90;;;;;;174021;28;858;-74
2021/06/05 00:26:05;;;;;;;6.35;4.00;;;17.80;99.90;;;;;;174478;28;1462;-75
2021/06/05 00:26:12;;;;;;;6.30;4.17;;;17.80;99.90;;;;;;173348;28;957;-75
2021/06/05 00:26:18;;;;;;;7.52;4.40;;;17.80;99.90;;;;;;173954;28;1439;-75
2021/06/05 00:26:25;;;;;;;7.93;4.35;;;17.80;99.90;;;;;;172548;28;1325;-76
2021/06/05 00:26:31;;;;;;;7.96;4.36;;;17.80;99.90;;;;;;172660;28;837;-75
2021/06/05 00:26:37;;;;;;;7.63;4.20;;;17.80;99.90;;;;;;171921;28;813;-75
2021/06/05 00:26:44;;;;;;;7.47;4.22;;;17.80;99.90;;;;;;171886;28;1042;-75
2021/06/05 00:26:51;;;;;;;6.84;4.28;;;17.80;99.90;;;;;;171834;28;1335;-75
2021/06/05 00:26:57;;;;;;;8.27;4.53;;;17.80;99.90;;;;;;173250;28;1433;-75
2021/06/05 00:27:03;;;;;;;8.20;4.57;;;17.80;99.90;;;;;;172457;28;1427;-75
2021/06/05 00:27:10;;;;;;;7.57;4.63;;;17.80;99.90;;;;;;172461;28;1303;-76
2021/06/05 00:27:16;;;;;;;7.23;4.50;;;17.80;99.90;;;;;;173240;28;1266;-76
2021/06/05 00:27:21;;;;;;;6.63;4.50;;;17.80;99.90;;;;;;172532;28;1303;-76
2021/06/05 00:27:27;;;;;;;6.20;4.47;;;17.80;99.90;;;;;;172654;28;911;-75
2021/06/05 00:27:34;;;;;;;6.30;4.32;;;17.80;99.90;;;;;;172599;28;895;-75
2021/06/05 00:27:41;;;;;;;6.87;4.37;;;17.80;99.90;;;;;;171936;28;887;-75
2021/06/05 00:27:46;;;;;;;6.86;4.28;;;17.80;99.90;;;;;;171948;28;915;-75
2021/06/05 00:27:52;;;;;;;6.33;4.37;;;17.80;99.90;;;;;;171898;28;1168;-75
2021/06/05 00:27:59;;;;;;;6.43;4.43;;;17.80;99.90;;;;;;172654;28;832;-75
2021/06/05 00:28:05;;;;;;;6.47;4.50;;;17.80;99.90;;;;;;172902;28;1081;-76
2021/06/05 00:28:11;;;;;;;6.10;4.50;;;17.70;99.90;;;;;;173362;28;979;-75
2021/06/05 00:28:19;;;;;;;6.23;4.53;;;17.80;99.90;;;;;;172544;28;1371;-74
2021/06/05 00:28:26;;;;;;;6.90;4.47;;;17.80;99.90;;;;;;173078;28;1282;-75
2021/06/05 00:28:32;;;;;;;6.85;4.25;;;17.70;99.90;;;;;;173945;28;1696;-74
2021/06/05 00:28:38;;;;;;;6.60;4.20;;;17.80;99.90;;;;;;174729;28;981;-75
2021/06/05 00:28:44;;;;;;;6.68;4.13;;;17.70;99.90;;;;;;173829;28;1425;-74
2021/06/05 00:28:50;;;;;;;7.60;4.32;;;17.70;99.90;;;;;;173916;28;1208;-75
2021/06/05 00:28:56;;;;;;;7.40;4.40;;;17.70;99.90;;;;;;173860;28;1317;-75
2021/06/05 00:29:03;;;;;;;7.60;4.47;;;17.70;99.90;;;;;;172483;28;1315;-76
2021/06/05 00:29:09;;;;;;;7.68;4.70;;;17.70;99.90;;;;;;172464;28;1575;-76
2021/06/05 00:29:15;;;;;;;8.10;4.80;;;17.70;99.90;;;;;;172548;28;1289;-75
2021/06/05 00:29:22;;;;;;;7.80;4.65;;;17.70;99.90;;;;;;173226;28;1184;-76
2021/06/05 00:29:27;;;;;;;7.32;4.68;;;17.70;99.90;;;;;;173919;28;1630;-75
2021/06/05 00:29:33;;;;;;;7.57;4.68;;;17.70;99.90;;;;;;174016;28;958;-75
2021/06/05 00:29:39;;;;;;;8.75;4.65;;;17.70;99.90;;;;;;173257;28;1225;-75
2021/06/05 00:29:45;;;;;;;7.95;4.60;;;17.60;99.90;;;;;;173815;28;1311;-75
2021/06/05 00:29:50;;;;;;;7.30;4.50;;;17.70;99.90;;;;;;173188;28;1289;-75
2021/06/05 00:29:56;;;;;;;9.13;4.50;;;17.70;99.90;;;;;;172556;28;1222;-76
2021/06/05 00:30:06;;;;;;;8.97;4.57;;;17.70;99.90;;;;;;172624;28;1219;-75
2021/06/05 00:30:13;;;;;;;9.31;4.61;;;17.70;99.90;;;;;;173146;28;1445;-75
2021/06/05 00:30:19;;;;;;;9.90;4.65;;;17.70;99.90;;;;;;173225;28;1357;-76
2021/06/05 00:30:27;;;;;;;8.37;4.73;;;17.70;99.90;;;;;;172509;28;991;-75
2021/06/05 00:30:33;;;;;;;7.83;4.67;;;17.70;99.90;;;;;;171971;28;871;-75
2021/06/05 00:30:39;;;;;;;7.03;4.60;;;17.70;99.90;;;;;;172712;28;895;-75
2021/06/05 00:30:46;;;;;;;6.30;4.63;;;17.70;99.90;;;;;;173267;28;930;-76
2021/06/05 00:30:52;;;;;;;8.17;4.70;;;17.70;99.90;;;;;;172595;28;959;-76
2021/06/05 00:30:59;;;;;;;8.70;4.57;;;17.70;99.90;;;;;;172658;28;939;-74
2021/06/05 00:31:05;;;;;;;8.58;4.50;;;17.70;99.90;;;;;;173235;28;1436;-75
2021/06/05 00:31:11;;;;;;;8.07;4.40;;;17.70;99.90;;;;;;174042;28;1138;-74
2021/06/05 00:31:18;;;;;;;6.82;4.25;;;17.70;99.90;;;;;;173239;28;1388;-74
2021/06/05 00:31:24;;;;;;;5.86;4.08;;;17.60;99.90;;;;;;172531;28;911;-75
2021/06/05 00:31:31;;;;;;;5.78;4.15;;;17.70;99.90;;;;;;171212;28;1327;-75
2021/06/05 00:31:37;;;;;;;5.86;4.10;;;17.70;99.90;;;;;;172504;28;1506;-75
2021/06/05 00:31:43;;;;;;;6.10;4.20;;;17.60;99.90;;;;;;174598;28;1309;-75
2021/06/05 00:31:50;;;;;;;6.88;4.30;;;17.60;99.90;;;;;;174598;28;1605;-76
2021/06/05 00:31:55;;;;;;;7.25;4.50;;;17.60;99.90;;;;;;173960;28;1286;-75
2021/06/05 00:32:02;;;;;;;6.85;4.40;;;17.60;99.90;;;;;;173248;28;1208;-75
2021/06/05 00:32:08;;;;;;;7.40;4.40;;;17.70;99.90;;;;;;173187;28;1259;-75
2021/06/05 00:32:13;;;;;;;7.43;4.43;;;17.60;99.90;;;;;;173268;28;926;-74
2021/06/05 00:32:19;;;;;;;6.82;4.40;;;17.60;99.90;;;;;;172568;28;1303;-75
2021/06/05 00:32:25;;;;;;;6.18;4.20;;;17.60;99.90;;;;;;172552;28;939;-76
2021/06/05 00:32:31;;;;;;;6.37;4.17;;;17.60;99.90;;;;;;173129;28;1243;-76
2021/06/05 00:32:37;;;;;;;6.07;4.10;;;17.70;99.90;;;;;;173278;28;923;-75
2021/06/05 00:32:43;;;;;;;6.47;4.03;;;17.60;99.90;;;;;;174012;28;847;-75
2021/06/05 00:32:49;;;;;;;6.83;4.10;;;17.60;99.90;;;;;;176069;28;1262;-75
2021/06/05 00:32:55;;;;;;;7.03;4.10;;;17.60;99.90;;;;;;174599;28;1407;-75
2021/06/05 00:33:02;;;;;;;7.13;4.10;;;17.70;99.90;;;;;;173924;28;871;-75
2021/06/05 00:33:09;;;;;;;7.64;4.16;;;17.60;99.90;;;;;;173887;28;1483;-75
2021/06/05 00:33:15;;;;;;;7.30;4.20;;;17.60;99.90;;;;;;173316;28;836;-75
2021/06/05 00:33:21;;;;;;;6.47;4.20;;;17.60;99.90;;;;;;173221;28;1343;-75
2021/06/05 00:33:27;;;;;;;7.33;4.50;;;17.60;99.90;;;;;;171871;28;844;-76
2021/06/05 00:33:34;;;;;;;7.47;4.50;;;17.60;99.90;;;;;;173205;28;1284;-75
2021/06/05 00:33:40;;;;;;;7.60;4.57;;;17.70;99.90;;;;;;174733;28;946;-74
2021/06/05 00:33:46;;;;;;;8.35;4.70;;;17.60;99.90;;;;;;174653;28;855;-75
2021/06/05 00:33:52;;;;;;;9.57;4.78;;;17.60;99.90;;;;;;173798;28;1512;-75
2021/06/05 00:33:58;;;;;;;8.53;4.50;;;17.60;99.90;;;;;;172581;28;1468;-75
2021/06/05 00:34:05;;;;;;;7.70;4.50;;;17.60;99.90;;;;;;173875;28;1216;-74
2021/06/05 00:34:12;;;;;;;7.30;4.40;;;17.60;99.90;;;;;;174497;28;1044;-77
2021/06/05 00:34:18;;;;;;;6.36;4.52;;;17.60;99.90;;;;;;173805;28;1538;-75
2021/06/05 00:34:24;;;;;;;6.03;4.57;;;17.60;99.90;;;;;;173196;28;1426;-75
2021/06/05 00:34:30;;;;;;;5.78;4.50;;;17.60;99.90;;;;;;172550;28;899;-76
2021/06/05 00:34:36;;;;;;;7.25;4.63;;;17.60;99.90;;;;;;171988;28;903;-76
2021/06/05 00:34:41;;;;;;;7.65;4.57;;;17.70;99.90;;;;;;172528;28;1228;-75
2021/06/05 00:34:47;;;;;;;8.00;4.50;;;17.60;99.90;;;;;;172453;28;1262;-76
2021/06/05 00:34:53;;;;;;;7.80;4.40;;;17.60;99.90;;;;;;172953;28;1261;-75
2021/06/05 00:34:59;;;;;;;8.23;4.53;;;17.60;99.90;;;;;;173220;28;1212;-75
2021/06/05 00:35:06;;;;;;;7.93;4.50;;;17.60;99.90;;;;;;173854;28;1343;-75
2021/06/05 00:35:13;;;;;;;8.22;4.50;;;17.70;99.90;;;;;;173512;28;1350;-76
2021/06/05 00:35:19;;;;;;;8.30;4.50;;;17.60;99.90;;;;;;174619;28;1399;-75
2021/06/05 00:35:28;;;;;;;8.57;4.70;;;17.60;99.90;;;;;;174584;28;1246;-76
2021/06/05 00:35:35;;;;;;;7.92;4.62;;;17.60;99.90;;;;;;173152;28;1477;-75
2021/06/05 00:35:41;;;;;;;7.02;4.60;;;17.60;99.90;;;;;;174687;28;1116;-75
2021/06/05 00:35:47;;;;;;;5.88;4.50;;;17.60;99.90;;;;;;173821;28;1438;-76
2021/06/05 00:35:54;;;;;;;5.75;4.28;;;17.60;99.90;;;;;;173944;28;882;-75
2021/06/05 00:36:01;;;;;;;6.37;4.10;;;17.60;99.90;;;;;;173813;28;1279;-76
2021/06/05 00:36:09;;;;;;;6.17;4.10;;;17.60;99.90;;;;;;173942;28;982;-75
2021/06/05 00:36:16;;;;;;;6.78;4.20;;;17.60;99.90;;;;;;173213;28;1468;-75
2021/06/05 00:36:24;;;;;;;7.10;4.33;;;17.60;99.90;;;;;;173936;28;890;-75
2021/06/05 00:36:30;;;;;;;6.17;4.50;;;17.60;99.90;;;;;;174570;28;1420;-75
2021/06/05 00:36:36;;;;;;;6.67;4.43;;;17.60;99.90;;;;;;174022;28;1579;-75
2021/06/05 00:36:42;;;;;;;7.27;4.43;;;17.60;99.90;;;;;;173202;28;1358;-76
2021/06/05 00:36:48;;;;;;;8.75;4.63;;;17.60;99.90;;;;;;173858;28;1385;-75
2021/06/05 00:36:54;;;;;;;10.48;4.68;;;17.60;99.90;;;;;;173970;28;1215;-75
2021/06/05 00:37:00;;;;;;;10.57;4.55;;;17.60;99.90;;;;;;174018;28;854;-75
2021/06/05 00:37:05;;;;;;;10.17;4.43;;;17.60;99.90;;;;;;173911;28;1482;-76
2021/06/05 00:37:11;;;;;;;9.23;4.38;;;17.60;99.90;;;;;;173940;28;1243;-76
2021/06/05 00:37:17;;;;;;;7.75;4.28;;;17.60;99.90;;;;;;173520;28;1386;-76
2021/06/05 00:37:23;;;;;;;5.93;4.28;;;17.60;99.90;;;;;;173963;28;1010;-76
2021/06/05 00:37:29;;;;;;;5.97;4.45;;;17.60;99.90;;;;;;172330;28;1371;-76
2021/06/05 00:37:34;;;;;;;7.23;4.60;;;17.60;99.90;;;;;;172619;28;874;-76
2021/06/05 00:37:41;;;;;;;7.82;4.78;;;17.60;99.90;;;;;;173216;28;1235;-75
2021/06/05 00:37:46;;;;;;;8.33;4.90;;;17.60;99.90;;;;;;173344;28;886;-75
2021/06/05 00:37:52;;;;;;;8.15;4.72;;;17.60;99.90;;;;;;173883;28;865;-75
2021/06/05 00:37:59;;;;;;;8.02;4.50;;;17.60;99.90;;;;;;173927;28;1277;-75
2021/06/05 00:38:07;;;;;;;6.68;4.20;;;17.60;99.90;;;;;;174712;28;962;-75
2021/06/05 00:38:13;;;;;;;6.03;4.10;;;17.60;99.90;;;;;;173281;28;1296;-75
2021/06/05 00:38:20;;;;;;;5.73;4.00;;;17.60;99.90;;;;;;174582;28;1264;-75
2021/06/05 00:38:26;;;;;;;7.67;4.33;;;17.60;99.90;;;;;;173897;28;1271;-75
2021/06/05 00:38:32;;;;;;;8.10;4.60;;;17.60;99.90;;;;;;174675;28;961;-75
2021/06/05 00:38:40;;;;;;;8.13;4.68;;;17.60;99.90;;;;;;173261;28;1184;-75
2021/06/05 00:38:46;;;;;;;8.00;4.70;;;17.60;99.90;;;;;;173941;28;947;-75
2021/06/05 00:38:54;;;;;;;9.10;4.78;;;17.60;99.90;;;;;;173892;28;1456;-75
2021/06/05 00:39:00;;;;;;;7.04;4.54;;;17.60;99.90;;;;;;173942;28;1157;-75
2021/06/05 00:39:08;;;;;;;7.07;4.43;;;17.50;99.90;;;;;;173897;28;1342;-75